Time;durP1;ratioP1;P1;durP2;ratioP2;P2;SDS_P1;SDS_P2;PMS_P1;PMS_P2;Temp;Humidity;BMP_temperature;BMP_pressure;BME280_temperature;BME280_humidity;BME280_pressure;Samples;Min_cycle;Max_cycle;Signal;HPM_P1;HPM_P2
2023/01/17 00:00:52;;;;;;;;;;;;;;;5.63;88.18;97468.22;5073903;28;19941;-63
2023/01/17 00:03:18;;;;;;;;;;;;;;;5.60;86.93;97471.03;5077093;28;19930;-63
2023/01/17 00:11:12;;;;;;;;;;;;;;;5.44;87.36;97470.97;5086164;28;19934;-63
2023/01/17 00:13:37;;;;;;;;;;;;;;;5.45;87.56;97472.69;5073058;28;19930;-63
2023/01/17 00:16:03;;;;;;;;;;;;;;;5.39;87.78;97478.25;5072709;28;19928;-63
2023/01/17 00:18:28;;;;;;;;;;;;;;;5.38;88.33;97476.56;5075228;28;20394;-63
2023/01/17 00:26:21;;;;;;;;;;;;;;;5.37;88.16;97480.97;5093039;28;19971;-63
2023/01/17 01:35:24;;;;;;;;;;;;;;;5.56;93.28;97469.47;5082504;28;19979;-64
2023/01/17 01:37:49;;;;;;;;;;;;;;;5.54;93.77;97476.59;5079138;28;20382;-63
2023/01/17 01:40:15;;;;;;;;;;;;;;;5.51;93.97;97482.91;5073713;28;19976;-63
2023/01/17 01:42:54;;;;;;;;;;;;;;;5.54;93.54;97487.16;5071371;28;19976;-64
2023/01/17 01:45:24;;;;;;;;;;;;;;;5.48;93.57;97482.19;5070935;28;20370;-64
2023/01/17 01:47:52;;;;;;;;;;;;;;;5.47;93.90;97480.50;5071282;28;19959;-64
2023/01/17 01:50:18;;;;;;;;;;;;;;;5.45;94.29;97482.38;5073772;28;20399;-64
2023/01/17 01:52:46;;;;;;;;;;;;;;;5.46;94.43;97484.06;5080845;28;19928;-63
2023/01/17 01:55:15;;;;;;;;;;;;;;;5.48;94.59;97476.94;5091269;28;19972;-63
2023/01/17 01:57:42;;;;;;;;;;;;;;;5.53;94.34;97488.94;5090576;28;19923;-64
2023/01/17 02:00:39;;;;;;;;;;;;;;;5.55;93.90;97480.97;5088778;28;19932;-64
2023/01/17 02:03:08;;;;;;;;;;;;;;;5.47;94.23;97476.06;5078913;28;19933;-64
2023/01/17 02:05:34;;;;;;;;;;;;;;;5.34;94.30;97475.88;5078493;28;19946;-63
2023/01/17 02:08:06;;;;;;;;;;;;;;;5.38;94.43;97482.69;5091311;28;19948;-63
2023/01/17 02:10:36;;;;;;;;;;;;;;;5.31;94.80;97470.78;5089000;28;19938;-63
2023/01/17 02:13:02;;;;;;;;;;;;;;;5.25;95.56;97475.50;5080284;28;19968;-63
2023/01/17 02:15:41;;;;;;;;;;;;;;;5.25;95.70;97488.69;5091071;28;19931;-63
2023/01/17 02:18:13;;;;;;;;;;;;;;;5.18;95.85;97485.50;5076763;28;19935;-63
2023/01/17 02:20:57;;;;;;;;;;;;;;;5.10;96.80;97479.78;5071016;28;19960;-63
2023/01/17 02:23:25;;;;;;;;;;;;;;;5.04;96.31;97482.72;5085847;28;19930;-63
2023/01/17 02:25:53;;;;;;;;;;;;;;;4.98;96.66;97467.22;5088628;28;19940;-63
2023/01/17 02:28:37;;;;;;;;;;;;;;;4.95;97.03;97483.19;5070916;28;19994;-63
2023/01/17 02:31:37;;;;;;;;;;;;;;;4.97;96.72;97480.50;5074213;28;20021;-63
2023/01/17 02:34:12;;;;;;;;;;;;;;;4.93;96.84;97485.06;4973692;28;19936;-64
2023/01/17 02:36:43;;;;;;;;;;;;;;;4.96;96.82;97469.09;5077168;28;19943;-63
2023/01/17 02:39:14;;;;;;;;;;;;;;;5.00;96.72;97464.53;5094814;28;19935;-63
2023/01/17 02:41:41;;;;;;;;;;;;;;;5.06;96.11;97465.06;5083569;28;19938;-64
2023/01/17 02:44:14;;;;;;;;;;;;;;;5.08;95.63;97468.47;5080987;28;19927;-63
2023/01/17 02:46:49;;;;;;;;;;;;;;;5.14;95.54;97457.59;5091833;28;20042;-63
2023/01/17 02:49:16;;;;;;;;;;;;;;;5.11;94.58;97463.03;5074280;28;19982;-63
2023/01/17 02:51:47;;;;;;;;;;;;;;;5.14;94.47;97470.78;5075274;28;19938;-63
2023/01/17 02:54:16;;;;;;;;;;;;;;;5.21;94.07;97461.63;5079179;28;20290;-63
2023/01/17 02:56:53;;;;;;;;;;;;;;;5.20;93.37;97452.03;5074199;28;20021;-63
2023/01/17 02:59:39;;;;;;;;;;;;;;;5.26;93.45;97462.25;5076388;28;19935;-63
2023/01/17 03:02:13;;;;;;;;;;;;;;;5.22;93.60;97462.50;5074031;28;20443;-63
2023/01/17 03:04:46;;;;;;;;;;;;;;;5.23;95.05;97462.41;5091424;28;20485;-63
2023/01/17 03:07:16;;;;;;;;;;;;;;;5.28;95.74;97460.41;5076545;28;20386;-63
2023/01/17 03:09:47;;;;;;;;;;;;;;;5.27;96.50;97466.56;5073936;28;19935;-63
2023/01/17 03:12:12;;;;;;;;;;;;;;;5.33;96.48;97458.38;5055776;28;19933;-63
2023/01/17 03:14:37;;;;;;;;;;;;;;;5.36;96.74;97458.19;5076176;28;19938;-63
2023/01/17 03:17:03;;;;;;;;;;;;;;;5.38;97.49;97455.47;5073812;28;19927;-64
2023/01/17 03:19:28;;;;;;;;;;;;;;;5.29;98.17;97445.41;5076376;28;19950;-63
2023/01/17 03:21:54;;;;;;;;;;;;;;;5.36;98.65;97450.28;5076546;28;20294;-63
2023/01/17 03:24:19;;;;;;;;;;;;;;;5.32;98.43;97451.38;5092206;28;19925;-63
2023/01/17 03:26:46;;;;;;;;;;;;;;;5.32;98.73;97447.91;5091148;28;20317;-63
2023/01/17 03:29:11;;;;;;;;;;;;;;;5.31;98.53;97457.59;5093810;28;19941;-63
2023/01/17 03:31:37;;;;;;;;;;;;;;;5.33;97.90;97447.84;5084618;28;19944;-63
2023/01/17 03:34:02;;;;;;;;;;;;;;;5.33;96.94;97452.25;5093836;28;19935;-64
2023/01/17 03:36:27;;;;;;;;;;;;;;;5.24;96.27;97463.25;5093787;28;20400;-63
2023/01/17 03:38:52;;;;;;;;;;;;;;;5.23;96.04;97465.06;5094024;28;19938;-63
2023/01/17 03:41:18;;;;;;;;;;;;;;;5.25;96.35;97457.88;5078901;28;19933;-64
2023/01/17 03:43:43;;;;;;;;;;;;;;;5.25;96.16;97465.78;5076052;28;19945;-63
2023/01/17 03:46:16;;;;;;;;;;;;;;;5.14;96.88;97464.69;5073333;28;20267;-63
2023/01/17 03:48:42;;;;;;;;;;;;;;;5.16;96.88;97465.44;5075310;28;20448;-63
2023/01/17 03:51:07;;;;;;;;;;;;;;;5.13;97.58;97468.22;5073627;28;19932;-63
2023/01/17 03:53:32;;;;;;;;;;;;;;;5.11;98.02;97468.31;5082300;28;20400;-63
2023/01/17 03:55:57;;;;;;;;;;;;;;;5.11;97.41;97468.31;5073091;28;19926;-63
2023/01/17 03:58:23;;;;;;;;;;;;;;;5.15;97.28;97471.63;5075448;28;19941;-63
2023/01/17 04:00:48;;;;;;;;;;;;;;;5.08;97.33;97475.50;5062609;28;20403;-63
2023/01/17 04:03:13;;;;;;;;;;;;;;;5.07;97.62;97471.19;5089809;28;20045;-63
2023/01/17 04:05:38;;;;;;;;;;;;;;;5.09;97.48;97470.16;5093162;28;20438;-63
2023/01/17 04:08:05;;;;;;;;;;;;;;;4.99;97.86;97462.81;5092974;28;19949;-63
2023/01/17 04:10:31;;;;;;;;;;;;;;;5.03;97.57;97461.72;5091468;28;19932;-63
2023/01/17 04:12:56;;;;;;;;;;;;;;;5.09;97.23;97448.25;5082744;28;19945;-62
2023/01/17 04:15:21;;;;;;;;;;;;;;;5.09;96.65;97446.44;5091748;28;19930;-63
2023/01/17 04:17:47;;;;;;;;;;;;;;;5.06;95.77;97443.97;5092758;28;20303;-63
2023/01/17 04:20:15;;;;;;;;;;;;;;;5.06;95.65;97437.84;5077508;28;19974;-63
2023/01/17 04:22:41;;;;;;;;;;;;;;;5.10;95.37;97440.28;5081744;28;20683;-63
2023/01/17 04:25:06;;;;;;;;;;;;;;;5.10;94.33;97444.69;5086592;28;19942;-63
2023/01/17 04:27:31;;;;;;;;;;;;;;;5.16;93.81;97446.97;5072310;28;19970;-63
2023/01/17 04:29:57;;;;;;;;;;;;;;;5.21;94.19;97437.91;5081998;28;19930;-63
2023/01/17 04:32:22;;;;;;;;;;;;;;;5.26;94.10;97443.81;5075699;28;20609;-63
2023/01/17 04:34:47;;;;;;;;;;;;;;;5.24;94.15;97439.53;5054518;28;20053;-63
2023/01/17 04:37:12;;;;;;;;;;;;;;;5.28;94.37;97439.31;5072302;28;19940;-63
2023/01/17 04:39:38;;;;;;;;;;;;;;;5.24;93.91;97429.84;5072415;28;19939;-63
2023/01/17 04:42:03;;;;;;;;;;;;;;;5.23;93.37;97420.25;5074346;28;19973;-63
2023/01/17 04:44:28;;;;;;;;;;;;;;;5.20;93.06;97425.69;5072122;28;19943;-62
2023/01/17 04:46:53;;;;;;;;;;;;;;;5.24;93.21;97431.63;5071828;28;19961;-63
2023/01/17 04:49:19;;;;;;;;;;;;;;;5.27;92.39;97426.22;5074440;28;20025;-63
2023/01/17 04:51:44;;;;;;;;;;;;;;;5.28;92.06;97428.78;5072887;28;20267;-63
2023/01/17 04:54:09;;;;;;;;;;;;;;;5.31;92.07;97423.34;5072980;28;19928;-63
2023/01/17 04:56:34;;;;;;;;;;;;;;;5.27;91.49;97427.03;5074029;28;20023;-63
2023/01/17 04:59:00;;;;;;;;;;;;;;;5.32;92.29;97421.56;5088415;28;19931;-63
2023/01/17 05:01:25;;;;;;;;;;;;;;;5.36;92.33;97421.31;5092182;28;19929;-63
2023/01/17 05:03:51;;;;;;;;;;;;;;;5.42;92.14;97419.28;5087517;28;19930;-63
2023/01/17 05:06:16;;;;;;;;;;;;;;;5.43;91.87;97415.69;5071738;28;20423;-63
2023/01/17 05:08:41;;;;;;;;;;;;;;;5.31;91.85;97401.38;5071563;28;19942;-63
2023/01/17 05:11:06;;;;;;;;;;;;;;;5.27;92.49;97402.50;5071876;28;19971;-63
2023/01/17 05:13:32;;;;;;;;;;;;;;;5.34;92.40;97407.34;5074055;28;19947;-63
2023/01/17 05:15:57;;;;;;;;;;;;;;;5.36;92.21;97405.50;5071704;28;19989;-63
2023/01/17 05:18:22;;;;;;;;;;;;;;;5.36;92.18;97402.84;5072079;28;19936;-63
2023/01/17 05:20:48;;;;;;;;;;;;;;;5.37;92.44;97401.91;5073463;28;19936;-62
2023/01/17 05:23:13;;;;;;;;;;;;;;;5.33;92.75;97400.38;5084897;28;20352;-63
2023/01/17 05:25:43;;;;;;;;;;;;;;;5.27;92.62;97398.06;5081271;28;19935;-63
2023/01/17 05:28:09;;;;;;;;;;;;;;;5.20;93.29;97385.31;5084955;28;19965;-63
2023/01/17 05:30:34;;;;;;;;;;;;;;;5.25;92.72;97396.47;5089634;28;20884;-63
2023/01/17 05:32:59;;;;;;;;;;;;;;;5.21;92.45;97381.72;5088560;28;19933;-63
2023/01/17 05:35:26;;;;;;;;;;;;;;;5.23;92.15;97383.38;5091771;28;19965;-63
2023/01/17 05:37:51;;;;;;;;;;;;;;;5.12;92.87;97383.06;5091611;28;19979;-62
2023/01/17 05:40:18;;;;;;;;;;;;;;;5.01;93.21;97366.13;5090558;28;19970;-62
2023/01/17 05:42:46;;;;;;;;;;;;;;;4.93;94.03;97369.16;5091470;28;19934;-63
2023/01/17 05:45:15;;;;;;;;;;;;;;;4.82;94.76;97366.25;5090423;28;19925;-63
2023/01/17 05:47:41;;;;;;;;;;;;;;;4.74;94.82;97360.53;5073123;28;19961;-63
2023/01/17 05:50:06;;;;;;;;;;;;;;;4.69;95.55;97359.94;5071315;28;19927;-63
2023/01/17 05:52:32;;;;;;;;;;;;;;;4.66;95.29;97364.50;5079688;28;19989;-63
2023/01/17 05:54:57;;;;;;;;;;;;;;;4.62;95.30;97357.66;5090993;28;20603;-63
2023/01/17 05:57:22;;;;;;;;;;;;;;;4.53;96.19;97356.34;5088242;28;19973;-63
2023/01/17 05:59:47;;;;;;;;;;;;;;;4.55;95.69;97359.75;5070854;28;19936;-63
2023/01/17 06:02:13;;;;;;;;;;;;;;;4.49;95.64;97346.94;5071717;28;19941;-63
2023/01/17 06:04:38;;;;;;;;;;;;;;;4.45;95.59;97350.63;5086935;28;20565;-63
2023/01/17 06:07:03;;;;;;;;;;;;;;;4.40;95.45;97355.28;5087027;28;19960;-63
2023/01/17 06:09:28;;;;;;;;;;;;;;;4.35;95.75;97349.38;5092479;28;19930;-63
2023/01/17 06:11:54;;;;;;;;;;;;;;;4.38;95.79;97358.94;5092434;28;20363;-63
2023/01/17 06:14:19;;;;;;;;;;;;;;;4.33;95.83;97351.28;5090321;28;19936;-63
2023/01/17 06:16:46;;;;;;;;;;;;;;;4.34;95.79;97341.56;5093086;28;19928;-63
2023/01/17 06:19:11;;;;;;;;;;;;;;;4.30;94.95;97340.88;5085895;28;19934;-63
2023/01/17 06:21:37;;;;;;;;;;;;;;;4.32;95.23;97340.78;5073311;28;19936;-63
2023/01/17 06:24:02;;;;;;;;;;;;;;;4.27;95.33;97341.03;5093433;28;19931;-63
2023/01/17 06:26:27;;;;;;;;;;;;;;;4.23;94.96;97336.88;5090277;28;20317;-63
2023/01/17 06:28:52;;;;;;;;;;;;;;;4.22;95.04;97336.94;5095112;28;19991;-63
2023/01/17 06:31:18;;;;;;;;;;;;;;;4.18;95.22;97333.63;5086873;28;19941;-63
2023/01/17 06:33:43;;;;;;;;;;;;;;;4.12;95.18;97336.53;5074786;28;20658;-63
2023/01/17 06:36:08;;;;;;;;;;;;;;;4.07;95.29;97330.66;5074474;28;19931;-63
2023/01/17 06:38:34;;;;;;;;;;;;;;;3.94;95.05;97333.03;5074599;28;19940;-63
2023/01/17 06:41:02;;;;;;;;;;;;;;;3.82;94.60;97330.19;5076823;28;19942;-63
2023/01/17 06:43:31;;;;;;;;;;;;;;;3.69;94.79;97336.94;5074599;28;20329;-63
2023/01/17 06:45:56;;;;;;;;;;;;;;;3.53;95.06;97335.97;5078404;28;20296;-63
2023/01/17 06:48:22;;;;;;;;;;;;;;;3.42;95.18;97335.63;5094115;28;19956;-63
2023/01/17 06:50:48;;;;;;;;;;;;;;;3.33;95.44;97331.66;5083802;28;20022;-63
2023/01/17 06:53:14;;;;;;;;;;;;;;;3.20;95.79;97324.41;5089863;28;19937;-63
2023/01/17 06:55:39;;;;;;;;;;;;;;;3.12;95.87;97329.16;5094538;28;19935;-63
2023/01/17 06:58:04;;;;;;;;;;;;;;;3.02;96.57;97325.25;5091028;28;19971;-63
2023/01/17 07:00:30;;;;;;;;;;;;;;;2.94;97.34;97322.13;5090215;28;20320;-63
2023/01/17 07:02:55;;;;;;;;;;;;;;;2.91;97.32;97317.88;5075407;28;19936;-63
2023/01/17 07:05:21;;;;;;;;;;;;;;;2.91;97.62;97314.38;5077386;28;19951;-63
2023/01/17 07:07:46;;;;;;;;;;;;;;;2.92;97.98;97309.06;5078694;28;20252;-63
2023/01/17 07:10:12;;;;;;;;;;;;;;;2.93;98.40;97316.03;5087229;28;19974;-63
2023/01/17 07:12:37;;;;;;;;;;;;;;;2.87;99.13;97315.47;5082488;28;19953;-63
2023/01/17 07:15:03;;;;;;;;;;;;;;;2.80;98.49;97311.41;5093533;28;19928;-63
2023/01/17 07:17:28;;;;;;;;;;;;;;;2.73;98.28;97314.28;5091388;28;20336;-63
2023/01/17 07:19:53;;;;;;;;;;;;;;;2.70;98.77;97314.44;5072015;28;19990;-63
2023/01/17 07:22:19;;;;;;;;;;;;;;;2.70;98.74;97309.19;5077857;28;19949;-63
2023/01/17 07:24:44;;;;;;;;;;;;;;;2.73;98.46;97316.91;5094048;28;19928;-63
2023/01/17 07:27:09;;;;;;;;;;;;;;;2.79;98.64;97325.44;5089236;28;19957;-63
2023/01/17 07:29:34;;;;;;;;;;;;;;;2.77;99.80;97322.03;5073765;28;20325;-63
2023/01/17 07:32:00;;;;;;;;;;;;;;;2.85;99.50;97317.31;5073691;28;19924;-63
2023/01/17 07:34:25;;;;;;;;;;;;;;;2.93;99.99;97313.41;5084390;28;20395;-63
2023/01/17 07:36:53;;;;;;;;;;;;;;;2.96;99.08;97318.53;5093452;28;19952;-63
2023/01/17 07:39:18;;;;;;;;;;;;;;;3.02;99.89;97328.72;5093320;28;20080;-62
2023/01/17 07:41:43;;;;;;;;;;;;;;;3.09;100.00;97327.53;5091317;28;19941;-63
2023/01/17 07:44:09;;;;;;;;;;;;;;;3.13;100.00;97331.72;5074288;28;19953;-63
2023/01/17 07:46:34;;;;;;;;;;;;;;;3.23;100.00;97326.91;5073259;28;20334;-63
2023/01/17 07:49:00;;;;;;;;;;;;;;;3.29;100.00;97322.22;5075739;28;20000;-63
2023/01/17 07:51:25;;;;;;;;;;;;;;;3.39;100.00;97327.88;5073235;28;19930;-63
2023/01/17 07:53:50;;;;;;;;;;;;;;;3.47;100.00;97318.72;5088064;28;19932;-63
2023/01/17 07:56:15;;;;;;;;;;;;;;;3.51;100.00;97328.16;5073179;28;19942;-63
2023/01/17 07:58:41;;;;;;;;;;;;;;;3.57;100.00;97330.50;5073216;28;19929;-63
2023/01/17 08:01:08;;;;;;;;;;;;;;;3.63;100.00;97331.97;5075746;28;19937;-63
2023/01/17 08:03:38;;;;;;;;;;;;;;;3.71;100.00;97324.56;5079280;28;19988;-63
2023/01/17 08:06:04;;;;;;;;;;;;;;;3.81;100.00;97331.09;5089273;28;19951;-63
2023/01/17 08:08:29;;;;;;;;;;;;;;;3.89;100.00;97327.16;5093172;28;20031;-63
2023/01/17 08:10:55;;;;;;;;;;;;;;;3.98;100.00;97324.09;5093044;28;20076;-63
2023/01/17 08:13:20;;;;;;;;;;;;;;;4.07;100.00;97327.19;5076571;28;19939;-63
2023/01/17 08:15:49;;;;;;;;;;;;;;;4.22;100.00;97321.16;5088382;28;19930;-63
2023/01/17 08:18:14;;;;;;;;;;;;;;;4.39;100.00;97323.78;5090311;28;20325;-63
2023/01/17 08:20:41;;;;;;;;;;;;;;;4.62;100.00;97319.03;5092789;28;19927;-63
2023/01/17 08:23:07;;;;;;;;;;;;;;;4.94;100.00;97312.91;5092136;28;20013;-63
2023/01/17 08:25:34;;;;;;;;;;;;;;;6.17;100.00;97304.25;5089685;28;19968;-63
2023/01/17 08:27:59;;;;;;;;;;;;;;;7.85;100.00;97303.41;5091930;28;20433;-63
2023/01/17 08:30:25;;;;;;;;;;;;;;;10.01;90.16;97297.97;5092721;28;19966;-63
2023/01/17 08:32:50;;;;;;;;;;;;;;;10.92;74.11;97301.69;5089024;28;19930;-63
2023/01/17 08:35:16;;;;;;;;;;;;;;;10.15;63.89;97299.59;5092411;28;19931;-63
2023/01/17 08:37:41;;;;;;;;;;;;;;;9.26;67.70;97292.84;5092440;28;19938;-63
2023/01/17 08:40:07;;;;;;;;;;;;;;;8.88;69.68;97289.38;5092522;28;20316;-63
2023/01/17 08:42:38;;;;;;;;;;;;;;;8.47;71.24;97286.91;5086609;28;19974;-63
2023/01/17 08:45:04;;;;;;;;;;;;;;;8.03;73.23;97292.50;5072130;28;19927;-63
2023/01/17 08:47:30;;;;;;;;;;;;;;;7.58;74.96;97281.38;5071973;28;19960;-63
2023/01/17 08:49:58;;;;;;;;;;;;;;;7.27;76.79;97285.13;5091153;28;20360;-63
2023/01/17 08:52:23;;;;;;;;;;;;;;;7.02;78.13;97278.84;5088310;28;19937;-63
2023/01/17 08:54:48;;;;;;;;;;;;;;;6.80;79.44;97281.94;5092087;28;20025;-63
2023/01/17 08:57:14;;;;;;;;;;;;;;;6.83;81.21;97281.75;5074128;28;19930;-63
2023/01/17 08:59:39;;;;;;;;;;;;;;;7.31;86.83;97275.22;5092202;28;19922;-63
2023/01/17 09:02:13;;;;;;;;;;;;;;;9.52;83.62;97262.69;5080038;28;19942;-63
2023/01/17 09:04:38;;;;;;;;;;;;;;;12.44;66.66;97259.97;5091949;28;19952;-63
2023/01/17 09:07:06;;;;;;;;;;;;;;;14.39;54.07;97263.09;5091987;28;19946;-63
2023/01/17 09:09:31;;;;;;;;;;;;;;;16.37;48.64;97266.25;5092098;28;19939;-63
2023/01/17 09:11:56;;;;;;;;;;;;;;;17.47;43.58;97271.88;5082271;28;19931;-63
2023/01/17 09:14:22;;;;;;;;;;;;;;;18.22;41.53;97266.50;5071492;28;19971;-63
2023/01/17 09:16:47;;;;;;;;;;;;;;;19.16;39.86;97272.34;5074084;28;19939;-63
2023/01/17 09:19:12;;;;;;;;;;;;;;;20.02;38.77;97259.84;5074282;28;20021;-64
2023/01/17 09:21:38;;;;;;;;;;;;;;;19.83;36.66;97268.34;5072093;28;19938;-63
2023/01/17 09:24:03;;;;;;;;;;;;;;;20.43;37.36;97266.72;5086473;28;19929;-63
2023/01/17 09:26:28;;;;;;;;;;;;;;;20.95;36.17;97262.34;5071446;28;20494;-63
2023/01/17 09:28:54;;;;;;;;;;;;;;;20.94;35.35;97266.88;5073706;28;19955;-64
2023/01/17 09:31:20;;;;;;;;;;;;;;;21.05;35.38;97267.53;5091460;28;19994;-63
2023/01/17 09:33:46;;;;;;;;;;;;;;;20.85;35.28;97273.41;5082015;28;19933;-63
2023/01/17 09:36:12;;;;;;;;;;;;;;;21.04;35.62;97265.84;5079281;28;19935;-64
2023/01/17 09:38:38;;;;;;;;;;;;;;;20.63;35.77;97260.72;5072293;28;20495;-63
2023/01/17 09:41:16;;;;;;;;;;;;;;;20.82;35.36;97259.41;5084486;28;19935;-64
2023/01/17 09:43:47;;;;;;;;;;;;;;;20.60;35.61;97260.22;5076783;28;20038;-64
2023/01/17 09:46:21;;;;;;;;;;;;;;;19.99;36.63;97266.44;5089274;28;19938;-64
2023/01/17 09:48:50;;;;;;;;;;;;;;;19.59;36.93;97264.72;5089748;28;21546;-63
2023/01/17 09:51:20;;;;;;;;;;;;;;;19.95;35.76;97269.66;5091455;28;19930;-63
2023/01/17 09:53:46;;;;;;;;;;;;;;;20.38;36.01;97267.28;5091330;28;19983;-64
2023/01/17 09:56:14;;;;;;;;;;;;;;;20.55;35.36;97260.75;5086097;28;19930;-64
2023/01/17 09:58:46;;;;;;;;;;;;;;;20.49;34.87;97272.25;5072266;28;19935;-63
2023/01/17 10:01:20;;;;;;;;;;;;;;;20.49;34.58;97264.16;5077587;28;19938;-63
2023/01/17 10:03:56;;;;;;;;;;;;;;;20.32;35.99;97265.28;5077176;28;19937;-63
2023/01/17 10:06:21;;;;;;;;;;;;;;;20.91;34.15;97266.41;5091236;28;20437;-63
2023/01/17 10:09:02;;;;;;;;;;;;;;;20.42;34.78;97270.47;5090812;28;19946;-63
2023/01/17 10:11:27;;;;;;;;;;;;;;;20.82;34.63;97267.50;5073741;28;19928;-64
2023/01/17 10:13:58;;;;;;;;;;;;;;;20.78;34.69;97263.47;5090962;28;20422;-63
2023/01/17 10:16:33;;;;;;;;;;;;;;;21.30;33.80;97258.19;5081837;28;20647;-64
2023/01/17 10:18:59;;;;;;;;;;;;;;;21.56;33.01;97253.16;5069544;28;19928;-64
2023/01/17 10:21:27;;;;;;;;;;;;;;;21.09;33.20;97248.03;5069832;28;19947;-64
2023/01/17 10:24:02;;;;;;;;;;;;;;;20.81;33.69;97242.34;5088063;28;19939;-64
2023/01/17 10:26:28;;;;;;;;;;;;;;;20.81;33.94;97234.22;5088980;28;19923;-64
2023/01/17 10:28:59;;;;;;;;;;;;;;;20.91;33.49;97239.38;5085047;28;19944;-64
2023/01/17 10:31:26;;;;;;;;;;;;;;;20.89;33.42;97236.88;5088763;28;19990;-64
2023/01/17 10:33:52;;;;;;;;;;;;;;;21.42;33.08;97232.34;5085894;28;19933;-64
2023/01/17 10:36:22;;;;;;;;;;;;;;;20.85;33.71;97232.00;5070693;28;19932;-64
2023/01/17 10:38:52;;;;;;;;;;;;;;;20.66;32.47;97230.63;5070268;28;19935;-64
2023/01/17 10:41:24;;;;;;;;;;;;;;;20.19;33.97;97227.25;5072197;28;20361;-64
2023/01/17 10:43:52;;;;;;;;;;;;;;;20.23;33.69;97211.53;5069829;28;19984;-64
2023/01/17 10:46:21;;;;;;;;;;;;;;;19.96;34.00;97210.13;5071682;28;19932;-64
2023/01/17 10:48:47;;;;;;;;;;;;;;;19.33;35.13;97209.34;5069539;28;19959;-64
2023/01/17 10:51:24;;;;;;;;;;;;;;;18.44;34.95;97191.53;5089486;28;19934;-64
2023/01/17 10:54:04;;;;;;;;;;;;;;;16.87;37.65;97197.59;5092614;28;19952;-64
2023/01/17 10:56:30;;;;;;;;;;;;;;;15.40;40.52;97200.78;5094403;28;19932;-64
2023/01/17 10:59:13;;;;;;;;;;;;;;;14.49;41.61;97203.28;5081375;28;19936;-64
2023/01/17 11:01:39;;;;;;;;;;;;;;;13.50;44.71;97203.56;5099441;28;19944;-64
2023/01/17 11:04:12;;;;;;;;;;;;;;;12.86;45.67;97198.53;5103643;28;20342;-64
2023/01/17 11:06:41;;;;;;;;;;;;;;;12.53;46.89;97189.91;5094316;28;20382;-63
2023/01/17 11:09:10;;;;;;;;;;;;;;;12.08;48.13;97191.09;5094115;28;19953;-63
2023/01/17 11:11:43;;;;;;;;;;;;;;;11.82;47.10;97188.78;5094389;28;19930;-63
2023/01/17 11:14:15;;;;;;;;;;;;;;;11.61;49.14;97182.50;5094380;28;19968;-63
2023/01/17 11:16:41;;;;;;;;;;;;;;;11.64;49.27;97187.66;5093862;28;19933;-64
2023/01/17 11:19:14;;;;;;;;;;;;;;;11.47;49.18;97176.63;5094206;28;19951;-64
2023/01/17 11:21:48;;;;;;;;;;;;;;;11.81;49.67;97171.09;5093822;28;20272;-64
2023/01/17 11:24:18;;;;;;;;;;;;;;;12.49;49.66;97159.97;5094203;28;19927;-63
2023/01/17 11:26:48;;;;;;;;;;;;;;;13.40;46.80;97154.63;5093962;28;19924;-64
2023/01/17 11:29:31;;;;;;;;;;;;;;;14.30;44.39;97146.28;5093344;28;19945;-64
2023/01/17 11:32:15;;;;;;;;;;;;;;;15.01;42.69;97156.41;5093643;28;19928;-64
2023/01/17 11:34:40;;;;;;;;;;;;;;;15.41;43.62;97151.59;5093877;28;19967;-64
2023/01/17 11:37:16;;;;;;;;;;;;;;;15.88;41.30;97149.59;5093744;28;19962;-64
2023/01/17 11:39:41;;;;;;;;;;;;;;;16.04;41.00;97151.59;5093721;28;19936;-64
2023/01/17 11:42:26;;;;;;;;;;;;;;;16.60;39.84;97136.84;5093175;28;19935;-64
2023/01/17 11:44:53;;;;;;;;;;;;;;;17.28;39.18;97100.09;5072530;28;19988;-64
2023/01/17 11:47:19;;;;;;;;;;;;;;;17.45;37.32;97101.91;5072347;28;19968;-65
2023/01/17 11:49:47;;;;;;;;;;;;;;;17.37;38.58;97093.78;5072843;28;19935;-64
2023/01/17 11:52:17;;;;;;;;;;;;;;;16.65;38.09;97096.13;5085424;28;20322;-65
2023/01/17 11:54:46;;;;;;;;;;;;;;;15.89;39.29;97097.69;5092181;28;19927;-64
2023/01/17 11:57:32;;;;;;;;;;;;;;;15.20;41.11;97088.53;5093171;28;19933;-64
2023/01/17 11:59:57;;;;;;;;;;;;;;;14.32;42.63;97070.31;5096586;28;19933;-64
2023/01/17 12:02:33;;;;;;;;;;;;;;;13.43;43.98;97074.25;5113742;28;19980;-64
2023/01/17 12:05:17;;;;;;;;;;;;;;;12.83;45.92;97070.72;5094839;28;19972;-64
2023/01/17 12:08:00;;;;;;;;;;;;;;;12.48;47.21;97053.47;5093012;28;19953;-64
2023/01/17 12:10:42;;;;;;;;;;;;;;;12.02;47.03;97056.59;5092816;28;19939;-64
2023/01/17 12:16:31;;;;;;;;;;;;;;;11.76;47.04;97039.34;5093192;28;19933;-64
2023/01/17 12:18:57;;;;;;;;;;;;;;;11.71;47.30;97022.91;5110428;28;19935;-64
2023/01/17 12:21:33;;;;;;;;;;;;;;;11.51;49.03;97023.69;5113338;28;19955;-64
2023/01/17 12:24:16;;;;;;;;;;;;;;;11.45;49.45;97014.41;5093150;28;19936;-64
2023/01/17 12:26:49;;;;;;;;;;;;;;;11.44;49.65;97006.53;5097843;28;20409;-64
2023/01/17 12:29:25;;;;;;;;;;;;;;;11.32;49.26;97007.56;5113060;28;19959;-64
2023/01/17 12:32:05;;;;;;;;;;;;;;;11.39;48.95;97004.28;5106630;28;19945;-64
2023/01/17 12:34:37;;;;;;;;;;;;;;;11.33;49.52;97006.59;5105000;28;19932;-64
2023/01/17 12:37:14;;;;;;;;;;;;;;;10.99;48.12;97013.03;5092624;28;20049;-64
2023/01/17 12:39:41;;;;;;;;;;;;;;;10.89;47.65;97014.75;5092510;28;19933;-64
2023/01/17 12:42:17;;;;;;;;;;;;;;;10.73;48.16;97019.59;5102995;28;19936;-64
2023/01/17 12:44:51;;;;;;;;;;;;;;;10.48;49.39;97021.56;5112736;28;19934;-64
2023/01/17 12:47:18;;;;;;;;;;;;;;;10.55;50.47;97016.63;5093758;28;20408;-64
2023/01/17 12:50:19;;;;;;;;;;;;;;;10.41;50.13;97004.44;5092233;28;20385;-64
2023/01/17 12:53:03;;;;;;;;;;;;;;;10.48;51.05;97002.97;4990253;28;20329;-64
2023/01/17 12:56:00;;;;;;;;;;;;;;;10.38;51.83;97010.00;5082876;28;20420;-64
2023/01/17 12:58:29;;;;;;;;;;;;;;;10.00;48.77;97014.78;5036385;28;19927;-64
2023/01/17 13:01:04;;;;;;;;;;;;;;;9.78;48.14;97012.13;5092276;28;20010;-64
2023/01/17 13:03:48;;;;;;;;;;;;;;;9.63;48.42;97015.94;5094322;28;20585;-64
2023/01/17 13:06:15;;;;;;;;;;;;;;;9.70;47.97;97013.66;5092206;28;19940;-64
2023/01/17 13:08:47;;;;;;;;;;;;;;;9.65;47.52;96999.91;5092006;28;20046;-64
2023/01/17 13:11:32;;;;;;;;;;;;;;;9.62;48.22;96998.31;5094940;28;19933;-64
2023/01/17 13:13:58;;;;;;;;;;;;;;;9.56;49.49;96988.19;5111637;28;19930;-64
2023/01/17 13:16:26;;;;;;;;;;;;;;;9.69;48.86;96982.75;5109730;28;20041;-64
2023/01/17 13:18:52;;;;;;;;;;;;;;;9.70;48.72;96985.31;5109798;28;19933;-64
2023/01/17 13:21:34;;;;;;;;;;;;;;;9.90;50.11;96981.94;5112321;28;19933;-64
2023/01/17 13:24:02;;;;;;;;;;;;;;;10.11;50.75;96975.00;5089842;28;19936;-64
2023/01/17 13:26:38;;;;;;;;;;;;;;;10.13;50.29;96975.72;5096994;28;20032;-64
2023/01/17 13:29:10;;;;;;;;;;;;;;;10.38;51.16;96977.25;5111818;28;19962;-64
2023/01/17 13:31:41;;;;;;;;;;;;;;;10.56;48.74;96975.78;5112095;28;19966;-64
2023/01/17 13:34:25;;;;;;;;;;;;;;;10.61;47.64;96976.25;5111997;28;20388;-64
2023/01/17 13:36:58;;;;;;;;;;;;;;;10.60;48.64;96969.25;5096769;28;19987;-64
2023/01/17 13:39:42;;;;;;;;;;;;;;;10.54;48.57;96983.88;5091534;28;19939;-64
2023/01/17 13:42:10;;;;;;;;;;;;;;;10.31;47.80;96976.91;5091641;28;19959;-64
2023/01/17 13:44:36;;;;;;;;;;;;;;;10.28;48.79;96981.63;5091465;28;20026;-64
2023/01/17 13:47:03;;;;;;;;;;;;;;;10.19;49.23;96979.69;5093546;28;19957;-64
2023/01/17 13:49:28;;;;;;;;;;;;;;;10.16;48.91;96978.16;5091224;28;19941;-64
2023/01/17 13:52:06;;;;;;;;;;;;;;;10.09;47.96;96976.94;5091498;28;19926;-64
2023/01/17 13:54:32;;;;;;;;;;;;;;;9.73;48.81;96979.78;5091440;28;19933;-64
2023/01/17 13:57:16;;;;;;;;;;;;;;;9.57;50.02;96983.72;5087539;28;19931;-64
2023/01/17 13:59:41;;;;;;;;;;;;;;;9.56;50.38;96982.88;5089823;28;19932;-64
2023/01/17 14:02:26;;;;;;;;;;;;;;;9.46;51.17;96979.22;5093270;28;20419;-64
2023/01/17 14:05:04;;;;;;;;;;;;;;;9.50;50.77;96986.00;5090714;28;19970;-64
2023/01/17 14:07:32;;;;;;;;;;;;;;;9.33;51.28;96989.94;5089041;28;19986;-64
2023/01/17 14:09:57;;;;;;;;;;;;;;;9.26;50.51;96983.41;5085238;28;20387;-64
2023/01/17 14:12:24;;;;;;;;;;;;;;;9.21;52.17;96992.66;5069803;28;19952;-64
2023/01/17 14:14:52;;;;;;;;;;;;;;;9.13;53.45;96995.03;5069945;28;19930;-64
2023/01/17 14:17:26;;;;;;;;;;;;;;;9.10;52.50;97000.56;5095768;28;20018;-64
2023/01/17 14:19:53;;;;;;;;;;;;;;;9.08;51.75;97003.34;5110352;28;19968;-64
2023/01/17 14:22:19;;;;;;;;;;;;;;;9.07;52.76;96995.50;5105642;28;19946;-64